Webcam Flughafen St.Gallen-Altenrhein

Live-Bilder und Zeitraffer LSZR / ACH.

 

Live aus Altenrhein
LIVE
LSZR 251750Z VRB03KT 9999 -SHRA FEW046 BKN080 20/18 Q1012 TEMPO SHRA RMK N
Zeitraffer heute
2021-07-25 00:14:27
LSZR 242150Z AUTO VRB03KT 9999 VCTS FEW010 BKN100 SCT///CB 18/18 Q1012 RETSRA